Main page
METAR-TAF:

METAR-TAF

Airports :

Larestan International Airport

Lar, Iran

latitude: 27-40-26N, longitude: 054-22-53E, elevation: 792 m

Current weather observation

The report was made 55 minutes ago, at 00:00 UTC
Calm wind
Temperature 27°C
Humidity 30%
Pressure 1003 hPa
Visibility 10 km or more
no clouds below 1500 m and no cumulonimbus

METAR: OISL 210000Z 00000KT CAVOK 27/08 Q1003

Time: 05:25 (00:55 UTC)

Forecast

The report was made 1 hour and 55 minutes ago, at 23:00 UTC
Forecast valid from 21 at 00 UTC to 22 at 06 UTC
Wind 6 kt from the West/Southwest
Visibility 10 km or more
no clouds below 1500 m and no cumulonimbus
Temporary
from 21 at 15 UTC to 21 at 18 UTC
Wind 12 kt from the South

TAF: OISL 202300Z 2100/2206 24003MPS CAVOK TEMPO 2115/2118 18006MPS

Weather observations and forecasts of more than 4000 airports (METAR and TAF reports).

The available stations are represented by yellow and red dots on the map.

Hover mouse over dot to see the name of the station.

Then click to see weather observations and forecasts.

To change the map : click on the green buttons with a black cross to zoom in, on the green button with a dash to zoom out, or on the green arrows for adjacent maps.


METAR-TAF: